sensor_id;sensor_type;location;lat;lon;timestamp;temperature;humidity
18654;DHT22;9456;47.824;16.228;2023-08-06T00:00:23;15.90;99.90
18654;DHT22;9456;47.824;16.228;2023-08-06T00:02:51;15.90;99.90
18654;DHT22;9456;47.824;16.228;2023-08-06T00:05:20;15.90;99.90
18654;DHT22;9456;47.824;16.228;2023-08-06T00:07:50;15.90;99.90
18654;DHT22;9456;47.824;16.228;2023-08-06T00:10:22;15.90;99.90
18654;DHT22;9456;47.824;16.228;2023-08-06T00:12:50;15.80;99.90
18654;DHT22;9456;47.824;16.228;2023-08-06T00:15:20;15.80;99.90
18654;DHT22;9456;47.824;16.228;2023-08-06T00:17:48;15.80;99.90
18654;DHT22;9456;47.824;16.228;2023-08-06T00:20:18;15.80;99.90
18654;DHT22;9456;47.824;16.228;2023-08-06T00:22:47;15.80;99.90
18654;DHT22;9456;47.824;16.228;2023-08-06T00:25:16;15.80;99.90
18654;DHT22;9456;47.824;16.228;2023-08-06T00:30:26;15.80;99.90
18654;DHT22;9456;47.824;16.228;2023-08-06T00:32:55;15.80;99.90
18654;DHT22;9456;47.824;16.228;2023-08-06T00:35:24;15.80;99.90
18654;DHT22;9456;47.824;16.228;2023-08-06T00:37:53;15.80;99.90
18654;DHT22;9456;47.824;16.228;2023-08-06T00:40:22;15.80;99.90
18654;DHT22;9456;47.824;16.228;2023-08-06T00:42:52;15.80;99.90
18654;DHT22;9456;47.824;16.228;2023-08-06T00:45:21;15.80;99.90
18654;DHT22;9456;47.824;16.228;2023-08-06T00:47:50;15.80;99.90
18654;DHT22;9456;47.824;16.228;2023-08-06T00:50:19;15.80;99.90
18654;DHT22;9456;47.824;16.228;2023-08-06T00:52:48;15.80;99.90
18654;DHT22;9456;47.824;16.228;2023-08-06T00:55:17;15.80;99.90
18654;DHT22;9456;47.824;16.228;2023-08-06T00:57:46;15.80;99.90
18654;DHT22;9456;47.824;16.228;2023-08-06T01:00:15;15.70;99.90
18654;DHT22;9456;47.824;16.228;2023-08-06T01:02:44;15.70;99.90
18654;DHT22;9456;47.824;16.228;2023-08-06T01:05:13;15.70;99.90
18654;DHT22;9456;47.824;16.228;2023-08-06T01:07:45;15.70;99.90
18654;DHT22;9456;47.824;16.228;2023-08-06T01:10:23;15.70;99.90
18654;DHT22;9456;47.824;16.228;2023-08-06T01:12:51;15.70;99.90
18654;DHT22;9456;47.824;16.228;2023-08-06T01:15:21;15.70;99.90
18654;DHT22;9456;47.824;16.228;2023-08-06T01:17:49;15.60;99.90
18654;DHT22;9456;47.824;16.228;2023-08-06T01:20:18;15.60;99.90
18654;DHT22;9456;47.824;16.228;2023-08-06T01:22:47;15.60;99.90
18654;DHT22;9456;47.824;16.228;2023-08-06T01:25:16;15.60;99.90
18654;DHT22;9456;47.824;16.228;2023-08-06T01:27:46;15.60;99.90
18654;DHT22;9456;47.824;16.228;2023-08-06T01:30:18;15.60;99.90
18654;DHT22;9456;47.824;16.228;2023-08-06T01:32:48;15.60;99.90
18654;DHT22;9456;47.824;16.228;2023-08-06T01:35:16;15.50;99.90
18654;DHT22;9456;47.824;16.228;2023-08-06T01:37:46;15.50;99.90
18654;DHT22;9456;47.824;16.228;2023-08-06T01:40:15;15.50;99.90
18654;DHT22;9456;47.824;16.228;2023-08-06T01:42:44;15.50;99.90
18654;DHT22;9456;47.824;16.228;2023-08-06T01:45:13;15.50;99.90
18654;DHT22;9456;47.824;16.228;2023-08-06T01:47:42;15.50;99.90
18654;DHT22;9456;47.824;16.228;2023-08-06T01:50:11;15.50;99.90
18654;DHT22;9456;47.824;16.228;2023-08-06T01:52:40;15.50;99.90
18654;DHT22;9456;47.824;16.228;2023-08-06T01:55:09;15.50;99.90
18654;DHT22;9456;47.824;16.228;2023-08-06T01:57:38;15.50;99.90
18654;DHT22;9456;47.824;16.228;2023-08-06T02:00:09;15.40;99.90
18654;DHT22;9456;47.824;16.228;2023-08-06T02:02:38;15.50;99.90
18654;DHT22;9456;47.824;16.228;2023-08-06T02:05:08;15.50;99.90
18654;DHT22;9456;47.824;16.228;2023-08-06T02:07:38;15.50;99.90
18654;DHT22;9456;47.824;16.228;2023-08-06T02:10:08;15.50;99.90
18654;DHT22;9456;47.824;16.228;2023-08-06T02:12:37;15.40;99.90
18654;DHT22;9456;47.824;16.228;2023-08-06T02:15:07;15.40;99.90
18654;DHT22;9456;47.824;16.228;2023-08-06T02:17:36;15.40;99.90
18654;DHT22;9456;47.824;16.228;2023-08-06T02:20:07;15.30;99.90
18654;DHT22;9456;47.824;16.228;2023-08-06T02:22:37;15.30;99.90
18654;DHT22;9456;47.824;16.228;2023-08-06T02:25:08;15.30;99.90
18654;DHT22;9456;47.824;16.228;2023-08-06T02:27:37;15.30;99.90
18654;DHT22;9456;47.824;16.228;2023-08-06T02:30:08;15.30;99.90
18654;DHT22;9456;47.824;16.228;2023-08-06T02:32:47;15.20;99.90
18654;DHT22;9456;47.824;16.228;2023-08-06T02:35:16;15.20;99.90
18654;DHT22;9456;47.824;16.228;2023-08-06T02:37:44;15.20;99.90
18654;DHT22;9456;47.824;16.228;2023-08-06T02:40:13;15.20;99.90
18654;DHT22;9456;47.824;16.228;2023-08-06T02:42:42;15.10;99.90
18654;DHT22;9456;47.824;16.228;2023-08-06T02:45:11;15.10;99.90
18654;DHT22;9456;47.824;16.228;2023-08-06T02:47:40;15.10;99.90
18654;DHT22;9456;47.824;16.228;2023-08-06T02:50:10;15.10;99.90
18654;DHT22;9456;47.824;16.228;2023-08-06T02:52:39;15.10;99.90
18654;DHT22;9456;47.824;16.228;2023-08-06T02:55:08;15.10;99.90
18654;DHT22;9456;47.824;16.228;2023-08-06T02:57:37;15.10;99.90
18654;DHT22;9456;47.824;16.228;2023-08-06T03:00:08;15.10;99.90
18654;DHT22;9456;47.824;16.228;2023-08-06T03:02:37;15.10;99.90
18654;DHT22;9456;47.824;16.228;2023-08-06T03:05:07;15.00;99.90
18654;DHT22;9456;47.824;16.228;2023-08-06T03:07:36;15.10;99.90
18654;DHT22;9456;47.824;16.228;2023-08-06T03:10:05;15.10;99.90
18654;DHT22;9456;47.824;16.228;2023-08-06T03:12:34;15.00;99.90
18654;DHT22;9456;47.824;16.228;2023-08-06T03:15:04;15.10;99.90
18654;DHT22;9456;47.824;16.228;2023-08-06T03:17:33;15.10;99.90
18654;DHT22;9456;47.824;16.228;2023-08-06T03:20:01;15.10;99.90
18654;DHT22;9456;47.824;16.228;2023-08-06T03:22:31;15.00;99.90
18654;DHT22;9456;47.824;16.228;2023-08-06T03:24:59;15.10;99.90
18654;DHT22;9456;47.824;16.228;2023-08-06T03:27:29;15.00;99.90
18654;DHT22;9456;47.824;16.228;2023-08-06T03:29:57;15.10;99.90
18654;DHT22;9456;47.824;16.228;2023-08-06T03:32:26;15.10;99.90
18654;DHT22;9456;47.824;16.228;2023-08-06T03:35:02;15.10;99.90
18654;DHT22;9456;47.824;16.228;2023-08-06T03:37:31;15.10;99.90
18654;DHT22;9456;47.824;16.228;2023-08-06T03:40:00;15.00;99.90
18654;DHT22;9456;47.824;16.228;2023-08-06T03:42:29;15.00;99.90
18654;DHT22;9456;47.824;16.228;2023-08-06T03:44:58;15.00;99.90
18654;DHT22;9456;47.824;16.228;2023-08-06T03:47:27;15.00;99.90
18654;DHT22;9456;47.824;16.228;2023-08-06T03:49:56;15.00;99.90
18654;DHT22;9456;47.824;16.228;2023-08-06T03:52:25;15.10;99.90
18654;DHT22;9456;47.824;16.228;2023-08-06T03:54:53;15.00;99.90
18654;DHT22;9456;47.824;16.228;2023-08-06T03:57:22;15.10;99.90
18654;DHT22;9456;47.824;16.228;2023-08-06T03:59:51;15.10;99.90
18654;DHT22;9456;47.824;16.228;2023-08-06T04:02:20;15.10;99.90
18654;DHT22;9456;47.824;16.228;2023-08-06T04:04:49;15.10;99.90
18654;DHT22;9456;47.824;16.228;2023-08-06T04:07:18;15.20;99.90
18654;DHT22;9456;47.824;16.228;2023-08-06T04:09:53;15.20;99.90
18654;DHT22;9456;47.824;16.228;2023-08-06T04:12:22;15.20;99.90
18654;DHT22;9456;47.824;16.228;2023-08-06T04:14:52;15.20;99.90
18654;DHT22;9456;47.824;16.228;2023-08-06T04:17:21;15.20;99.90
18654;DHT22;9456;47.824;16.228;2023-08-06T04:19:50;15.20;99.90
18654;DHT22;9456;47.824;16.228;2023-08-06T04:22:19;15.20;99.90
18654;DHT22;9456;47.824;16.228;2023-08-06T04:24:48;15.20;99.90
18654;DHT22;9456;47.824;16.228;2023-08-06T04:27:17;15.20;99.90
18654;DHT22;9456;47.824;16.228;2023-08-06T04:29:45;15.30;99.90
18654;DHT22;9456;47.824;16.228;2023-08-06T04:32:15;15.30;99.90
18654;DHT22;9456;47.824;16.228;2023-08-06T04:34:44;15.30;99.90
18654;DHT22;9456;47.824;16.228;2023-08-06T04:39:58;15.40;99.90
18654;DHT22;9456;47.824;16.228;2023-08-06T04:42:27;15.50;99.90
18654;DHT22;9456;47.824;16.228;2023-08-06T04:44:56;15.50;99.90
18654;DHT22;9456;47.824;16.228;2023-08-06T04:47:25;15.50;99.90
18654;DHT22;9456;47.824;16.228;2023-08-06T04:49:54;15.60;99.90
18654;DHT22;9456;47.824;16.228;2023-08-06T04:52:23;15.60;99.90
18654;DHT22;9456;47.824;16.228;2023-08-06T04:54:53;15.60;99.90
18654;DHT22;9456;47.824;16.228;2023-08-06T04:57:23;15.70;99.90
18654;DHT22;9456;47.824;16.228;2023-08-06T04:59:53;15.70;99.90
18654;DHT22;9456;47.824;16.228;2023-08-06T05:02:22;15.70;99.90
18654;DHT22;9456;47.824;16.228;2023-08-06T05:04:51;15.70;99.90
18654;DHT22;9456;47.824;16.228;2023-08-06T05:07:21;15.70;99.90
18654;DHT22;9456;47.824;16.228;2023-08-06T05:09:50;15.70;99.90
18654;DHT22;9456;47.824;16.228;2023-08-06T05:12:19;15.80;99.90
18654;DHT22;9456;47.824;16.228;2023-08-06T05:14:48;15.80;99.90
18654;DHT22;9456;47.824;16.228;2023-08-06T05:17:17;15.90;99.90
18654;DHT22;9456;47.824;16.228;2023-08-06T05:19:48;15.90;99.90
18654;DHT22;9456;47.824;16.228;2023-08-06T05:22:17;15.90;99.90
18654;DHT22;9456;47.824;16.228;2023-08-06T05:24:48;15.90;99.90
18654;DHT22;9456;47.824;16.228;2023-08-06T05:27:17;16.00;99.90
18654;DHT22;9456;47.824;16.228;2023-08-06T05:29:47;16.00;99.90
18654;DHT22;9456;47.824;16.228;2023-08-06T05:32:16;16.10;99.90
18654;DHT22;9456;47.824;16.228;2023-08-06T05:34:45;16.20;99.90
18654;DHT22;9456;47.824;16.228;2023-08-06T05:37:14;16.20;99.90
18654;DHT22;9456;47.824;16.228;2023-08-06T05:39:43;16.30;99.90
18654;DHT22;9456;47.824;16.228;2023-08-06T05:42:12;16.30;99.90
18654;DHT22;9456;47.824;16.228;2023-08-06T05:44:41;16.30;99.90
18654;DHT22;9456;47.824;16.228;2023-08-06T05:47:10;16.40;99.90
18654;DHT22;9456;47.824;16.228;2023-08-06T05:49:39;16.40;99.90
18654;DHT22;9456;47.824;16.228;2023-08-06T05:52:08;16.40;99.90
18654;DHT22;9456;47.824;16.228;2023-08-06T05:54:37;16.40;99.90
18654;DHT22;9456;47.824;16.228;2023-08-06T05:57:07;16.40;99.90
18654;DHT22;9456;47.824;16.228;2023-08-06T05:59:37;16.50;99.90
18654;DHT22;9456;47.824;16.228;2023-08-06T06:02:06;16.50;99.90
18654;DHT22;9456;47.824;16.228;2023-08-06T06:04:35;16.50;99.90
18654;DHT22;9456;47.824;16.228;2023-08-06T06:07:05;16.50;99.90
18654;DHT22;9456;47.824;16.228;2023-08-06T06:09:34;16.50;99.90
18654;DHT22;9456;47.824;16.228;2023-08-06T06:12:03;16.50;99.90
18654;DHT22;9456;47.824;16.228;2023-08-06T06:14:32;16.50;99.90
18654;DHT22;9456;47.824;16.228;2023-08-06T06:17:01;16.50;99.90
18654;DHT22;9456;47.824;16.228;2023-08-06T06:19:30;16.50;99.90
18654;DHT22;9456;47.824;16.228;2023-08-06T06:21:59;16.50;99.90
18654;DHT22;9456;47.824;16.228;2023-08-06T06:24:28;16.50;99.90
18654;DHT22;9456;47.824;16.228;2023-08-06T06:26:56;16.50;99.90
18654;DHT22;9456;47.824;16.228;2023-08-06T06:29:27;16.60;99.90
18654;DHT22;9456;47.824;16.228;2023-08-06T06:31:56;16.60;99.90
18654;DHT22;9456;47.824;16.228;2023-08-06T06:34:25;16.60;99.90
18654;DHT22;9456;47.824;16.228;2023-08-06T06:36:54;16.70;99.90
18654;DHT22;9456;47.824;16.228;2023-08-06T06:39:23;16.70;99.90
18654;DHT22;9456;47.824;16.228;2023-08-06T06:41:56;16.80;99.90
18654;DHT22;9456;47.824;16.228;2023-08-06T06:44:25;16.80;99.90
18654;DHT22;9456;47.824;16.228;2023-08-06T06:46:54;16.80;99.90
18654;DHT22;9456;47.824;16.228;2023-08-06T06:49:23;16.90;99.90
18654;DHT22;9456;47.824;16.228;2023-08-06T06:51:52;16.90;99.90
18654;DHT22;9456;47.824;16.228;2023-08-06T06:54:21;17.00;99.90
18654;DHT22;9456;47.824;16.228;2023-08-06T06:56:50;17.00;99.90
18654;DHT22;9456;47.824;16.228;2023-08-06T06:59:18;17.10;99.90
18654;DHT22;9456;47.824;16.228;2023-08-06T07:01:48;17.10;99.90
18654;DHT22;9456;47.824;16.228;2023-08-06T07:04:17;17.20;99.90
18654;DHT22;9456;47.824;16.228;2023-08-06T07:06:46;17.20;99.90
18654;DHT22;9456;47.824;16.228;2023-08-06T07:09:15;17.20;99.90
18654;DHT22;9456;47.824;16.228;2023-08-06T07:11:44;17.30;99.90
18654;DHT22;9456;47.824;16.228;2023-08-06T07:14:13;17.30;99.90
18654;DHT22;9456;47.824;16.228;2023-08-06T07:16:42;17.40;99.90
18654;DHT22;9456;47.824;16.228;2023-08-06T07:19:11;17.40;99.90
18654;DHT22;9456;47.824;16.228;2023-08-06T07:21:40;17.50;99.90
18654;DHT22;9456;47.824;16.228;2023-08-06T07:24:09;17.60;99.90
18654;DHT22;9456;47.824;16.228;2023-08-06T07:26:38;17.60;99.90
18654;DHT22;9456;47.824;16.228;2023-08-06T07:29:07;17.70;99.90
18654;DHT22;9456;47.824;16.228;2023-08-06T07:31:36;17.80;99.90
18654;DHT22;9456;47.824;16.228;2023-08-06T07:34:05;17.80;99.90
18654;DHT22;9456;47.824;16.228;2023-08-06T07:36:34;17.80;99.90
18654;DHT22;9456;47.824;16.228;2023-08-06T07:39:03;17.80;99.90
18654;DHT22;9456;47.824;16.228;2023-08-06T07:41:32;17.70;99.90
18654;DHT22;9456;47.824;16.228;2023-08-06T07:44:07;17.80;99.90
18654;DHT22;9456;47.824;16.228;2023-08-06T07:46:36;17.90;99.90
18654;DHT22;9456;47.824;16.228;2023-08-06T07:49:05;18.00;99.90
18654;DHT22;9456;47.824;16.228;2023-08-06T07:51:34;18.10;99.90
18654;DHT22;9456;47.824;16.228;2023-08-06T07:54:03;18.20;99.90
18654;DHT22;9456;47.824;16.228;2023-08-06T07:56:32;18.30;99.90
18654;DHT22;9456;47.824;16.228;2023-08-06T07:59:01;18.30;99.90
18654;DHT22;9456;47.824;16.228;2023-08-06T08:01:30;18.40;99.90
18654;DHT22;9456;47.824;16.228;2023-08-06T08:03:59;18.50;99.90
18654;DHT22;9456;47.824;16.228;2023-08-06T08:06:27;18.60;99.90
18654;DHT22;9456;47.824;16.228;2023-08-06T08:08:56;18.60;99.90
18654;DHT22;9456;47.824;16.228;2023-08-06T08:11:26;18.50;99.90
18654;DHT22;9456;47.824;16.228;2023-08-06T08:13:55;18.50;99.90
18654;DHT22;9456;47.824;16.228;2023-08-06T08:16:24;18.50;99.90
18654;DHT22;9456;47.824;16.228;2023-08-06T08:18:53;18.50;99.90
18654;DHT22;9456;47.824;16.228;2023-08-06T08:21:22;18.60;99.90
18654;DHT22;9456;47.824;16.228;2023-08-06T08:23:52;18.70;99.90
18654;DHT22;9456;47.824;16.228;2023-08-06T08:26:21;18.70;99.90
18654;DHT22;9456;47.824;16.228;2023-08-06T08:28:50;18.80;99.90
18654;DHT22;9456;47.824;16.228;2023-08-06T08:31:18;18.80;99.90
18654;DHT22;9456;47.824;16.228;2023-08-06T08:33:47;18.90;99.90
18654;DHT22;9456;47.824;16.228;2023-08-06T08:36:16;18.90;99.90
18654;DHT22;9456;47.824;16.228;2023-08-06T08:38:45;19.00;99.90
18654;DHT22;9456;47.824;16.228;2023-08-06T08:41:15;19.10;99.90
18654;DHT22;9456;47.824;16.228;2023-08-06T08:43:43;19.10;99.90
18654;DHT22;9456;47.824;16.228;2023-08-06T08:46:12;19.10;99.90
18654;DHT22;9456;47.824;16.228;2023-08-06T08:48:41;19.10;99.90
18654;DHT22;9456;47.824;16.228;2023-08-06T08:51:12;19.20;99.90
18654;DHT22;9456;47.824;16.228;2023-08-06T08:53:41;19.20;99.90
18654;DHT22;9456;47.824;16.228;2023-08-06T08:56:09;19.30;99.90
18654;DHT22;9456;47.824;16.228;2023-08-06T08:58:38;19.40;99.90
18654;DHT22;9456;47.824;16.228;2023-08-06T09:01:08;19.30;99.90
18654;DHT22;9456;47.824;16.228;2023-08-06T09:03:37;19.30;99.90
18654;DHT22;9456;47.824;16.228;2023-08-06T09:06:06;19.40;99.90
18654;DHT22;9456;47.824;16.228;2023-08-06T09:08:36;19.40;99.90
18654;DHT22;9456;47.824;16.228;2023-08-06T09:11:04;19.30;99.90
18654;DHT22;9456;47.824;16.228;2023-08-06T09:13:33;19.20;99.90
18654;DHT22;9456;47.824;16.228;2023-08-06T09:16:03;19.20;99.90
18654;DHT22;9456;47.824;16.228;2023-08-06T09:18:32;19.10;99.90
18654;DHT22;9456;47.824;16.228;2023-08-06T09:21:01;19.10;99.90
18654;DHT22;9456;47.824;16.228;2023-08-06T09:23:30;19.20;99.90
18654;DHT22;9456;47.824;16.228;2023-08-06T09:25:59;19.30;99.90
18654;DHT22;9456;47.824;16.228;2023-08-06T09:28:40;19.30;99.90
18654;DHT22;9456;47.824;16.228;2023-08-06T09:31:30;19.30;99.90
18654;DHT22;9456;47.824;16.228;2023-08-06T09:34:00;19.30;99.90
18654;DHT22;9456;47.824;16.228;2023-08-06T09:36:29;19.20;99.90
18654;DHT22;9456;47.824;16.228;2023-08-06T09:38:58;19.20;99.90
18654;DHT22;9456;47.824;16.228;2023-08-06T09:41:28;19.00;99.90
18654;DHT22;9456;47.824;16.228;2023-08-06T09:43:57;18.90;99.90
18654;DHT22;9456;47.824;16.228;2023-08-06T09:46:26;18.80;99.90
18654;DHT22;9456;47.824;16.228;2023-08-06T09:48:55;18.70;99.90
18654;DHT22;9456;47.824;16.228;2023-08-06T09:51:24;18.60;99.90
18654;DHT22;9456;47.824;16.228;2023-08-06T09:53:53;18.50;99.90
18654;DHT22;9456;47.824;16.228;2023-08-06T09:56:22;18.60;99.90
18654;DHT22;9456;47.824;16.228;2023-08-06T09:58:51;18.50;99.90
18654;DHT22;9456;47.824;16.228;2023-08-06T10:01:20;18.50;99.90
18654;DHT22;9456;47.824;16.228;2023-08-06T10:03:49;18.50;99.90
18654;DHT22;9456;47.824;16.228;2023-08-06T10:06:18;18.40;99.90
18654;DHT22;9456;47.824;16.228;2023-08-06T10:08:47;18.40;99.90
18654;DHT22;9456;47.824;16.228;2023-08-06T10:11:16;18.40;99.90
18654;DHT22;9456;47.824;16.228;2023-08-06T10:13:45;18.50;99.90
18654;DHT22;9456;47.824;16.228;2023-08-06T10:16:14;18.50;99.90
18654;DHT22;9456;47.824;16.228;2023-08-06T10:18:43;18.50;99.90
18654;DHT22;9456;47.824;16.228;2023-08-06T10:21:12;18.50;99.90
18654;DHT22;9456;47.824;16.228;2023-08-06T10:23:40;18.50;99.90
18654;DHT22;9456;47.824;16.228;2023-08-06T10:26:09;18.50;99.90
18654;DHT22;9456;47.824;16.228;2023-08-06T10:28:38;18.50;99.90
18654;DHT22;9456;47.824;16.228;2023-08-06T10:31:07;18.50;99.90
18654;DHT22;9456;47.824;16.228;2023-08-06T10:33:43;18.50;99.90
18654;DHT22;9456;47.824;16.228;2023-08-06T10:36:12;18.60;99.90
18654;DHT22;9456;47.824;16.228;2023-08-06T10:38:47;18.60;99.90
18654;DHT22;9456;47.824;16.228;2023-08-06T10:41:23;18.60;99.90
18654;DHT22;9456;47.824;16.228;2023-08-06T10:43:52;18.70;99.90
18654;DHT22;9456;47.824;16.228;2023-08-06T10:46:27;18.70;99.90
18654;DHT22;9456;47.824;16.228;2023-08-06T10:48:56;18.60;99.90
18654;DHT22;9456;47.824;16.228;2023-08-06T10:51:25;18.60;99.90
18654;DHT22;9456;47.824;16.228;2023-08-06T10:53:54;18.60;99.90
18654;DHT22;9456;47.824;16.228;2023-08-06T10:56:24;18.60;99.90
18654;DHT22;9456;47.824;16.228;2023-08-06T10:58:54;18.50;99.90
18654;DHT22;9456;47.824;16.228;2023-08-06T11:01:21;18.60;99.90
18654;DHT22;9456;47.824;16.228;2023-08-06T11:03:50;18.60;99.90
18654;DHT22;9456;47.824;16.228;2023-08-06T11:06:19;18.60;99.90
18654;DHT22;9456;47.824;16.228;2023-08-06T11:08:49;18.60;99.90
18654;DHT22;9456;47.824;16.228;2023-08-06T11:11:18;18.60;99.90
18654;DHT22;9456;47.824;16.228;2023-08-06T11:13:47;18.60;99.90
18654;DHT22;9456;47.824;16.228;2023-08-06T11:16:16;18.60;99.90
18654;DHT22;9456;47.824;16.228;2023-08-06T11:18:45;18.50;99.90
18654;DHT22;9456;47.824;16.228;2023-08-06T11:21:13;18.60;99.90
18654;DHT22;9456;47.824;16.228;2023-08-06T11:23:42;18.50;99.90
18654;DHT22;9456;47.824;16.228;2023-08-06T11:26:11;18.60;99.90
18654;DHT22;9456;47.824;16.228;2023-08-06T11:28:41;18.50;99.90
18654;DHT22;9456;47.824;16.228;2023-08-06T11:31:21;18.60;99.90
18654;DHT22;9456;47.824;16.228;2023-08-06T11:33:50;18.60;99.90
18654;DHT22;9456;47.824;16.228;2023-08-06T11:36:29;18.60;99.90
18654;DHT22;9456;47.824;16.228;2023-08-06T11:38:58;18.70;99.90
18654;DHT22;9456;47.824;16.228;2023-08-06T11:41:28;18.70;99.90
18654;DHT22;9456;47.824;16.228;2023-08-06T11:43:57;18.60;99.90
18654;DHT22;9456;47.824;16.228;2023-08-06T11:46:26;18.60;99.90
18654;DHT22;9456;47.824;16.228;2023-08-06T11:48:55;18.70;99.90
18654;DHT22;9456;47.824;16.228;2023-08-06T11:51:24;18.60;99.90
18654;DHT22;9456;47.824;16.228;2023-08-06T11:53:56;18.60;99.90
18654;DHT22;9456;47.824;16.228;2023-08-06T11:56:25;18.60;99.90
18654;DHT22;9456;47.824;16.228;2023-08-06T11:58:55;18.50;99.90
18654;DHT22;9456;47.824;16.228;2023-08-06T12:01:25;18.60;99.90
18654;DHT22;9456;47.824;16.228;2023-08-06T12:03:53;18.60;99.90
18654;DHT22;9456;47.824;16.228;2023-08-06T12:06:22;18.60;99.90
18654;DHT22;9456;47.824;16.228;2023-08-06T12:08:51;18.60;99.90
18654;DHT22;9456;47.824;16.228;2023-08-06T12:11:21;18.60;99.90
18654;DHT22;9456;47.824;16.228;2023-08-06T12:13:52;18.60;99.90
18654;DHT22;9456;47.824;16.228;2023-08-06T12:16:21;18.60;99.90
18654;DHT22;9456;47.824;16.228;2023-08-06T12:18:50;18.60;99.90
18654;DHT22;9456;47.824;16.228;2023-08-06T12:21:19;18.60;99.90
18654;DHT22;9456;47.824;16.228;2023-08-06T12:23:48;18.60;99.90
18654;DHT22;9456;47.824;16.228;2023-08-06T12:26:17;18.70;99.90
18654;DHT22;9456;47.824;16.228;2023-08-06T12:28:46;18.70;99.90
18654;DHT22;9456;47.824;16.228;2023-08-06T12:31:15;18.70;99.90
18654;DHT22;9456;47.824;16.228;2023-08-06T12:33:43;18.80;99.90
18654;DHT22;9456;47.824;16.228;2023-08-06T12:36:12;18.80;99.90
18654;DHT22;9456;47.824;16.228;2023-08-06T12:38:41;18.80;99.90
18654;DHT22;9456;47.824;16.228;2023-08-06T12:41:10;18.80;99.90
18654;DHT22;9456;47.824;16.228;2023-08-06T12:43:39;18.90;99.90
18654;DHT22;9456;47.824;16.228;2023-08-06T12:46:08;18.90;99.90
18654;DHT22;9456;47.824;16.228;2023-08-06T12:48:37;19.00;99.90
18654;DHT22;9456;47.824;16.228;2023-08-06T12:51:06;19.10;99.90
18654;DHT22;9456;47.824;16.228;2023-08-06T12:53:34;19.20;99.90
18654;DHT22;9456;47.824;16.228;2023-08-06T12:56:04;19.20;99.90
18654;DHT22;9456;47.824;16.228;2023-08-06T12:58:33;19.20;99.90
18654;DHT22;9456;47.824;16.228;2023-08-06T13:01:02;19.30;99.90
18654;DHT22;9456;47.824;16.228;2023-08-06T13:03:31;19.40;99.90
18654;DHT22;9456;47.824;16.228;2023-08-06T13:06:00;19.40;99.90
18654;DHT22;9456;47.824;16.228;2023-08-06T13:08:29;19.50;99.90
18654;DHT22;9456;47.824;16.228;2023-08-06T13:10:58;19.60;99.90
18654;DHT22;9456;47.824;16.228;2023-08-06T13:13:27;19.70;99.90
18654;DHT22;9456;47.824;16.228;2023-08-06T13:15:56;19.80;99.90
18654;DHT22;9456;47.824;16.228;2023-08-06T13:18:24;19.90;99.90
18654;DHT22;9456;47.824;16.228;2023-08-06T13:20:55;20.00;99.90
18654;DHT22;9456;47.824;16.228;2023-08-06T13:23:24;20.10;99.90
18654;DHT22;9456;47.824;16.228;2023-08-06T13:25:53;20.20;99.90
18654;DHT22;9456;47.824;16.228;2023-08-06T13:28:22;20.20;99.90
18654;DHT22;9456;47.824;16.228;2023-08-06T13:30:51;20.30;99.90
18654;DHT22;9456;47.824;16.228;2023-08-06T13:33:20;20.50;99.90
18654;DHT22;9456;47.824;16.228;2023-08-06T13:35:49;20.50;99.90
18654;DHT22;9456;47.824;16.228;2023-08-06T13:38:18;20.50;99.90
18654;DHT22;9456;47.824;16.228;2023-08-06T13:40:47;20.50;99.90
18654;DHT22;9456;47.824;16.228;2023-08-06T13:43:16;20.50;99.90
18654;DHT22;9456;47.824;16.228;2023-08-06T13:45:45;20.50;99.90
18654;DHT22;9456;47.824;16.228;2023-08-06T13:48:14;20.50;99.90
18654;DHT22;9456;47.824;16.228;2023-08-06T13:50:43;20.40;99.90
18654;DHT22;9456;47.824;16.228;2023-08-06T13:53:12;20.40;99.90
18654;DHT22;9456;47.824;16.228;2023-08-06T13:55:41;20.20;99.90
18654;DHT22;9456;47.824;16.228;2023-08-06T13:58:11;20.20;99.90
18654;DHT22;9456;47.824;16.228;2023-08-06T14:00:39;20.20;99.90
18654;DHT22;9456;47.824;16.228;2023-08-06T14:03:08;20.20;99.90
18654;DHT22;9456;47.824;16.228;2023-08-06T14:05:37;20.20;99.90
18654;DHT22;9456;47.824;16.228;2023-08-06T14:08:06;20.20;99.90
18654;DHT22;9456;47.824;16.228;2023-08-06T14:10:35;20.30;99.90
18654;DHT22;9456;47.824;16.228;2023-08-06T14:13:04;20.20;99.90
18654;DHT22;9456;47.824;16.228;2023-08-06T14:15:33;20.20;99.90
18654;DHT22;9456;47.824;16.228;2023-08-06T14:18:02;20.30;99.90
18654;DHT22;9456;47.824;16.228;2023-08-06T14:20:30;20.20;99.90
18654;DHT22;9456;47.824;16.228;2023-08-06T14:22:59;20.20;99.90
18654;DHT22;9456;47.824;16.228;2023-08-06T14:25:28;20.00;99.90
18654;DHT22;9456;47.824;16.228;2023-08-06T14:27:57;19.90;99.90
18654;DHT22;9456;47.824;16.228;2023-08-06T14:30:26;19.80;99.90
18654;DHT22;9456;47.824;16.228;2023-08-06T14:32:55;19.70;99.90
18654;DHT22;9456;47.824;16.228;2023-08-06T14:35:24;19.70;99.90
18654;DHT22;9456;47.824;16.228;2023-08-06T14:37:53;19.70;99.90
18654;DHT22;9456;47.824;16.228;2023-08-06T14:40:22;19.60;99.90
18654;DHT22;9456;47.824;16.228;2023-08-06T14:42:50;19.60;99.90
18654;DHT22;9456;47.824;16.228;2023-08-06T14:45:19;19.60;99.90
18654;DHT22;9456;47.824;16.228;2023-08-06T14:47:48;19.70;99.90
18654;DHT22;9456;47.824;16.228;2023-08-06T14:50:17;19.70;99.90
18654;DHT22;9456;47.824;16.228;2023-08-06T14:52:46;19.70;99.90
18654;DHT22;9456;47.824;16.228;2023-08-06T14:55:23;19.70;99.90
18654;DHT22;9456;47.824;16.228;2023-08-06T14:57:53;19.70;99.90
18654;DHT22;9456;47.824;16.228;2023-08-06T15:00:23;19.70;99.90
18654;DHT22;9456;47.824;16.228;2023-08-06T15:02:52;19.60;99.90
18654;DHT22;9456;47.824;16.228;2023-08-06T15:05:21;19.60;99.90
18654;DHT22;9456;47.824;16.228;2023-08-06T15:07:50;19.60;99.90
18654;DHT22;9456;47.824;16.228;2023-08-06T15:10:19;19.50;99.90
18654;DHT22;9456;47.824;16.228;2023-08-06T15:12:48;19.60;99.90
18654;DHT22;9456;47.824;16.228;2023-08-06T15:15:17;19.50;99.90
18654;DHT22;9456;47.824;16.228;2023-08-06T15:17:46;19.40;99.90
18654;DHT22;9456;47.824;16.228;2023-08-06T15:20:15;19.30;99.90
18654;DHT22;9456;47.824;16.228;2023-08-06T15:22:44;19.30;99.90
18654;DHT22;9456;47.824;16.228;2023-08-06T15:25:13;19.30;99.90
18654;DHT22;9456;47.824;16.228;2023-08-06T15:27:42;19.20;99.90
18654;DHT22;9456;47.824;16.228;2023-08-06T15:30:12;19.20;99.90
18654;DHT22;9456;47.824;16.228;2023-08-06T15:32:41;19.20;99.90
18654;DHT22;9456;47.824;16.228;2023-08-06T15:35:10;19.20;99.90
18654;DHT22;9456;47.824;16.228;2023-08-06T15:37:40;19.20;99.90
18654;DHT22;9456;47.824;16.228;2023-08-06T15:40:11;19.10;99.90
18654;DHT22;9456;47.824;16.228;2023-08-06T15:42:40;19.00;99.90
18654;DHT22;9456;47.824;16.228;2023-08-06T15:45:10;18.90;99.90
18654;DHT22;9456;47.824;16.228;2023-08-06T15:47:39;18.80;99.90